createdAt,value
2022-08-20T00:01:10.026Z,21.28
2022-08-20T00:03:40.272Z,21.31
2022-08-20T00:06:13.086Z,21.31
2022-08-20T00:08:40.857Z,21.25
2022-08-20T00:11:11.034Z,21.21
2022-08-20T00:13:43.569Z,21.21
2022-08-20T00:16:11.222Z,21.20
2022-08-20T00:18:39.553Z,21.16
2022-08-20T00:21:09.625Z,21.24
2022-08-20T00:23:38.728Z,21.16
2022-08-20T00:26:06.705Z,21.24
2022-08-20T00:28:34.001Z,21.16
2022-08-20T00:31:09.299Z,21.13
2022-08-20T00:33:37.482Z,21.23
2022-08-20T00:36:10.747Z,21.17
2022-08-20T00:38:40.123Z,21.25
2022-08-20T00:41:11.219Z,21.21
2022-08-20T00:43:44.387Z,21.11
2022-08-20T00:46:19.333Z,21.13
2022-08-20T00:48:49.174Z,21.21
2022-08-20T00:51:29.933Z,21.12
2022-08-20T00:54:04.341Z,21.11
2022-08-20T00:56:35.895Z,21.08
2022-08-20T00:59:11.221Z,21.01
2022-08-20T01:01:55.435Z,20.96
2022-08-20T01:04:26.319Z,20.96
2022-08-20T01:06:53.926Z,20.76
2022-08-20T01:09:49.562Z,21.01
2022-08-20T01:12:09.818Z,20.77
2022-08-20T01:14:45.687Z,21.05
2022-08-20T01:17:19.904Z,21.08
2022-08-20T01:19:55.556Z,21.05
2022-08-20T01:22:50.746Z,21.15
2022-08-20T01:25:34.098Z,21.03
2022-08-20T01:28:01.913Z,20.98
2022-08-20T01:30:31.487Z,21.05
2022-08-20T01:32:58.551Z,21.01
2022-08-20T01:35:26.291Z,20.96
2022-08-20T01:37:53.404Z,21.01
2022-08-20T01:40:47.340Z,20.96
2022-08-20T01:43:14.959Z,20.89
2022-08-20T01:45:44.775Z,20.85
2022-08-20T01:48:15.290Z,20.94
2022-08-20T01:50:50.911Z,20.80
2022-08-20T01:53:24.901Z,20.77
2022-08-20T01:55:51.932Z,20.81
2022-08-20T01:58:18.966Z,20.81
2022-08-20T02:00:46.704Z,20.81
2022-08-20T02:03:13.888Z,20.84
2022-08-20T02:05:41.024Z,20.78
2022-08-20T02:08:08.214Z,20.86
2022-08-20T02:10:35.784Z,20.75
2022-08-20T02:13:05.219Z,20.71
2022-08-20T02:15:35.818Z,20.77
2022-08-20T02:18:10.320Z,20.75
2022-08-20T02:20:37.879Z,20.81
2022-08-20T02:23:06.462Z,20.77
2022-08-20T02:25:37.291Z,20.74
2022-08-20T02:28:09.394Z,20.73
2022-08-20T02:30:42.382Z,20.53
2022-08-20T02:33:13.024Z,20.79
2022-08-20T02:35:42.750Z,20.74
2022-08-20T02:38:10.862Z,20.75
2022-08-20T02:40:38.682Z,20.74
2022-08-20T02:43:06.169Z,20.74
2022-08-20T02:45:43.624Z,20.35
2022-08-20T02:48:20.819Z,20.77
2022-08-20T02:50:54.893Z,20.30
2022-08-20T02:53:22.800Z,20.59
2022-08-20T02:55:50.643Z,20.54
2022-08-20T02:58:19.391Z,20.54
2022-08-20T03:00:47.153Z,20.54
2022-08-20T03:03:15.339Z,20.09
2022-08-20T03:05:44.931Z,20.48
2022-08-20T03:08:14.613Z,20.47
2022-08-20T03:10:43.923Z,20.46
2022-08-20T03:13:12.418Z,20.32
2022-08-20T03:15:42.096Z,20.31
2022-08-20T03:18:09.727Z,20.28
2022-08-20T03:20:36.853Z,20.28
2022-08-20T03:23:04.684Z,20.31
2022-08-20T03:25:33.149Z,20.31
2022-08-20T03:28:00.640Z,20.28
2022-08-20T03:30:29.657Z,20.18
2022-08-20T03:32:57.267Z,20.24
2022-08-20T03:35:26.218Z,20.23
2022-08-20T03:37:54.380Z,20.28
2022-08-20T03:40:29.255Z,20.27
2022-08-20T03:42:57.127Z,20.31
2022-08-20T03:45:25.814Z,20.31
2022-08-20T03:47:54.807Z,20.26
2022-08-20T03:50:26.056Z,20.05
2022-08-20T03:52:54.528Z,20.28
2022-08-20T03:55:24.173Z,20.34
2022-08-20T03:57:55.518Z,20.26
2022-08-20T04:00:30.018Z,20.26
2022-08-20T04:02:57.244Z,20.28
2022-08-20T04:05:25.397Z,20.20
2022-08-20T04:08:00.084Z,20.14
2022-08-20T04:10:32.004Z,20.10
2022-08-20T04:12:59.400Z,20.06
2022-08-20T04:15:27.058Z,20.08
2022-08-20T04:17:54.403Z,20.05
2022-08-20T04:20:25.842Z,20.04
2022-08-20T04:22:59.090Z,20.05
2022-08-20T04:25:29.835Z,19.93
2022-08-20T04:28:03.362Z,20.07
2022-08-20T04:30:30.709Z,19.98
2022-08-20T04:32:59.470Z,19.96
2022-08-20T04:35:26.828Z,20.02
2022-08-20T04:38:02.726Z,19.97
2022-08-20T04:40:48.855Z,19.95
2022-08-20T04:43:16.000Z,19.98
2022-08-20T04:45:44.740Z,20.00
2022-08-20T04:48:15.193Z,20.00
2022-08-20T04:50:45.069Z,19.98
2022-08-20T04:53:14.465Z,19.99
2022-08-20T04:55:43.194Z,20.00
2022-08-20T04:58:14.022Z,19.99
2022-08-20T05:00:41.198Z,20.00
2022-08-20T05:03:08.908Z,19.95
2022-08-20T05:05:36.142Z,19.79
2022-08-20T05:08:04.141Z,19.64
2022-08-20T05:10:31.313Z,19.91
2022-08-20T05:12:58.780Z,19.91
2022-08-20T05:15:26.352Z,19.88
2022-08-20T05:18:00.610Z,19.86
2022-08-20T05:20:31.292Z,19.94
2022-08-20T05:22:59.441Z,19.92
2022-08-20T05:25:30.419Z,19.55
2022-08-20T05:28:09.154Z,19.93
2022-08-20T05:30:38.500Z,19.97
2022-08-20T05:33:08.723Z,19.96
2022-08-20T05:35:41.138Z,20.03
2022-08-20T05:38:11.748Z,19.92
2022-08-20T05:40:41.498Z,20.11
2022-08-20T05:43:09.100Z,20.09
2022-08-20T05:45:38.877Z,20.16
2022-08-20T05:48:13.123Z,20.17
2022-08-20T05:50:42.667Z,20.22
2022-08-20T05:53:09.798Z,20.33
2022-08-20T05:55:37.335Z,20.22
2022-08-20T05:58:07.284Z,20.68
2022-08-20T06:00:35.663Z,20.62
2022-08-20T06:03:21.154Z,20.77
2022-08-20T06:05:48.223Z,20.90
2022-08-20T06:08:16.758Z,20.76
2022-08-20T06:10:44.255Z,21.02
2022-08-20T06:13:13.809Z,21.15
2022-08-20T06:15:41.547Z,21.12
2022-08-20T06:18:10.275Z,21.55
2022-08-20T06:20:54.540Z,21.51
2022-08-20T06:23:23.156Z,21.39
2022-08-20T06:25:50.398Z,21.58
2022-08-20T06:28:18.645Z,21.44
2022-08-20T06:30:45.930Z,21.53
2022-08-20T06:33:12.988Z,21.77
2022-08-20T06:35:40.226Z,21.83
2022-08-20T06:38:09.784Z,21.98
2022-08-20T06:40:36.799Z,21.97
2022-08-20T06:43:04.166Z,22.01
2022-08-20T06:45:32.859Z,21.94
2022-08-20T06:48:05.050Z,21.85
2022-08-20T06:50:44.452Z,21.92
2022-08-20T06:53:17.683Z,22.34
2022-08-20T06:55:49.015Z,22.47
2022-08-20T06:58:36.906Z,22.69
2022-08-20T07:01:09.577Z,23.02
2022-08-20T07:03:39.068Z,22.49
2022-08-20T07:06:07.335Z,22.25
2022-08-20T07:08:35.475Z,22.33
2022-08-20T07:11:02.769Z,22.38
2022-08-20T07:13:30.515Z,22.36
2022-08-20T07:15:57.675Z,22.16
2022-08-20T07:18:28.829Z,22.12
2022-08-20T07:20:57.754Z,22.23
2022-08-20T07:23:26.001Z,22.23
2022-08-20T07:25:53.827Z,22.06
2022-08-20T07:28:23.822Z,22.14
2022-08-20T07:31:13.869Z,22.26
2022-08-20T07:33:44.525Z,21.93
2022-08-20T07:36:12.790Z,22.09
2022-08-20T07:38:40.135Z,21.76
2022-08-20T07:41:10.072Z,21.94
2022-08-20T07:43:38.239Z,21.90
2022-08-20T07:46:08.934Z,21.62
2022-08-20T07:48:40.090Z,21.36
2022-08-20T07:51:09.174Z,21.17
2022-08-20T07:53:38.918Z,20.90
2022-08-20T07:56:08.691Z,21.01
2022-08-20T07:58:36.707Z,20.56
2022-08-20T08:01:05.965Z,20.79
2022-08-20T08:03:39.670Z,20.53
2022-08-20T08:06:09.539Z,20.44
2022-08-20T08:08:38.532Z,20.37
2022-08-20T08:11:06.892Z,20.17
2022-08-20T08:13:38.098Z,20.50
2022-08-20T08:16:06.451Z,20.47
2022-08-20T08:18:41.696Z,20.43
2022-08-20T08:21:12.877Z,20.00
2022-08-20T08:23:44.831Z,20.15
2022-08-20T08:26:15.981Z,19.86
2022-08-20T08:28:46.466Z,20.07
2022-08-20T08:31:14.524Z,20.25
2022-08-20T08:33:42.421Z,20.29
2022-08-20T08:36:12.542Z,20.34
2022-08-20T08:38:43.581Z,20.46
2022-08-20T08:41:34.139Z,20.38
2022-08-20T08:44:09.358Z,20.39
2022-08-20T08:46:41.758Z,20.68
2022-08-20T08:49:16.223Z,20.92
2022-08-20T08:51:50.193Z,21.00
2022-08-20T08:54:22.157Z,20.94
2022-08-20T08:56:50.618Z,20.81
2022-08-20T08:59:20.229Z,20.72
2022-08-20T09:01:54.413Z,20.76
2022-08-20T09:04:32.375Z,20.61
2022-08-20T09:07:02.842Z,21.06
2022-08-20T09:09:35.500Z,21.16
2022-08-20T09:12:05.187Z,21.33
2022-08-20T09:14:32.359Z,21.53
2022-08-20T09:16:59.417Z,21.48
2022-08-20T09:19:26.478Z,21.32
2022-08-20T09:21:53.564Z,21.01
2022-08-20T09:24:20.674Z,20.84
2022-08-20T09:26:47.743Z,20.94
2022-08-20T09:29:15.090Z,20.85
2022-08-20T09:31:42.270Z,21.35
2022-08-20T09:34:09.503Z,21.29
2022-08-20T09:36:36.567Z,21.97
2022-08-20T09:39:03.731Z,22.19
2022-08-20T09:41:33.672Z,22.43
2022-08-20T09:44:02.270Z,22.21
2022-08-20T09:46:29.307Z,21.68
2022-08-20T09:48:56.372Z,21.91
2022-08-20T09:51:23.527Z,21.69
2022-08-20T09:53:50.726Z,22.00
2022-08-20T09:56:18.140Z,22.34
2022-08-20T09:58:49.980Z,22.49
2022-08-20T10:01:18.880Z,22.14
2022-08-20T10:03:48.699Z,22.12
2022-08-20T10:06:17.755Z,21.86
2022-08-20T10:08:44.860Z,21.89
2022-08-20T10:11:12.066Z,21.75
2022-08-20T10:13:39.239Z,22.12
2022-08-20T10:16:06.723Z,22.18
2022-08-20T10:18:35.047Z,22.40
2022-08-20T10:21:02.135Z,22.20
2022-08-20T10:23:29.274Z,22.11
2022-08-20T10:25:56.306Z,22.13
2022-08-20T10:28:23.528Z,22.00
2022-08-20T10:30:50.626Z,22.13
2022-08-20T10:33:17.814Z,22.25
2022-08-20T10:35:44.919Z,21.97
2022-08-20T10:38:12.010Z,21.94
2022-08-20T10:40:39.129Z,21.84
2022-08-20T10:43:06.219Z,22.40
2022-08-20T10:45:33.347Z,22.39
2022-08-20T10:48:01.392Z,22.73
2022-08-20T10:50:30.235Z,22.71
2022-08-20T10:52:58.196Z,22.91
2022-08-20T10:55:25.269Z,23.16
2022-08-20T10:57:52.331Z,23.00
2022-08-20T11:00:19.830Z,23.00
2022-08-20T11:02:46.989Z,23.15
2022-08-20T11:05:14.602Z,22.96
2022-08-20T11:07:55.565Z,22.30
2022-08-20T11:10:26.528Z,22.62
2022-08-20T11:12:53.626Z,22.31
2022-08-20T11:15:20.698Z,22.54
2022-08-20T11:17:47.792Z,22.46
2022-08-20T11:20:17.352Z,23.07
2022-08-20T11:22:44.423Z,23.58
2022-08-20T11:25:11.950Z,23.40
2022-08-20T11:27:46.896Z,23.12
2022-08-20T11:30:24.639Z,23.09
2022-08-20T11:32:52.314Z,23.26
2022-08-20T11:38:08.753Z,23.24
2022-08-20T11:40:35.855Z,22.80
2022-08-20T11:43:18.701Z,22.73
2022-08-20T11:45:49.591Z,23.16
2022-08-20T11:48:17.892Z,23.66
2022-08-20T11:50:45.731Z,24.09
2022-08-20T11:53:12.938Z,23.94
2022-08-20T11:55:42.353Z,24.25
2022-08-20T11:58:10.215Z,24.16
2022-08-20T12:00:37.373Z,23.78
2022-08-20T12:03:09.025Z,23.91
2022-08-20T12:05:37.984Z,24.05
2022-08-20T12:08:05.657Z,24.17
2022-08-20T12:10:32.840Z,24.58
2022-08-20T12:13:00.075Z,24.59
2022-08-20T12:15:29.813Z,24.26
2022-08-20T12:17:56.869Z,24.34
2022-08-20T12:20:24.655Z,24.59
2022-08-20T12:22:53.850Z,24.72
2022-08-20T12:25:20.991Z,24.80
2022-08-20T12:27:48.031Z,24.41
2022-08-20T12:30:19.768Z,24.61
2022-08-20T12:32:47.568Z,24.56
2022-08-20T12:35:16.596Z,24.96
2022-08-20T12:37:44.829Z,24.92
2022-08-20T12:40:21.617Z,24.69
2022-08-20T12:43:01.715Z,24.91
2022-08-20T12:45:29.087Z,24.92
2022-08-20T12:48:02.060Z,24.88
2022-08-20T12:50:31.765Z,24.32
2022-08-20T12:52:59.881Z,24.20
2022-08-20T12:55:27.351Z,24.19
2022-08-20T12:58:00.190Z,24.09
2022-08-20T13:00:34.538Z,24.14
2022-08-20T13:03:04.374Z,24.00
2022-08-20T13:05:32.587Z,24.37
2022-08-20T13:08:00.002Z,24.46
2022-08-20T13:10:33.063Z,24.18
2022-08-20T13:13:02.529Z,24.13
2022-08-20T13:15:33.144Z,24.09
2022-08-20T13:18:03.295Z,23.99
2022-08-20T13:20:34.067Z,23.96
2022-08-20T13:23:04.294Z,23.85
2022-08-20T13:25:32.599Z,24.14
2022-08-20T13:28:04.272Z,24.17
2022-08-20T13:30:33.195Z,23.96
2022-08-20T13:33:00.576Z,23.97
2022-08-20T13:35:27.791Z,24.24
2022-08-20T13:37:54.974Z,24.56
2022-08-20T13:40:22.207Z,24.63
2022-08-20T13:42:49.321Z,24.42
2022-08-20T13:45:16.672Z,24.19
2022-08-20T13:47:44.144Z,24.15
2022-08-20T13:50:14.163Z,24.30
2022-08-20T13:52:42.762Z,24.60
2022-08-20T13:55:12.619Z,24.29
2022-08-20T13:57:41.344Z,24.27
2022-08-20T14:00:12.912Z,24.37
2022-08-20T14:02:41.467Z,24.38
2022-08-20T14:05:09.358Z,24.14
2022-08-20T14:07:37.957Z,24.45
2022-08-20T14:10:09.230Z,24.66
2022-08-20T14:12:36.477Z,24.59
2022-08-20T14:15:04.514Z,24.57
2022-08-20T14:17:34.168Z,24.66
2022-08-20T14:20:13.674Z,24.54
2022-08-20T14:22:42.543Z,24.80
2022-08-20T14:25:12.926Z,24.84
2022-08-20T14:27:41.203Z,25.04
2022-08-20T14:30:12.869Z,24.63
2022-08-20T14:32:40.187Z,25.12
2022-08-20T14:35:08.304Z,24.78
2022-08-20T14:37:39.090Z,24.82
2022-08-20T14:40:11.305Z,24.77
2022-08-20T14:42:39.219Z,24.88
2022-08-20T14:45:08.268Z,24.98
2022-08-20T14:47:38.736Z,24.91
2022-08-20T14:50:13.370Z,24.87
2022-08-20T14:52:41.242Z,24.96
2022-08-20T14:55:12.227Z,25.28
2022-08-20T14:57:40.171Z,25.62
2022-08-20T15:00:10.190Z,25.71
2022-08-20T15:02:37.896Z,25.95
2022-08-20T15:05:07.170Z,25.86
2022-08-20T15:07:38.020Z,25.77
2022-08-20T15:10:08.731Z,25.96
2022-08-20T15:12:35.977Z,25.83
2022-08-20T15:15:15.644Z,25.07
2022-08-20T15:17:49.155Z,25.71
2022-08-20T15:20:20.570Z,25.30
2022-08-20T15:22:49.063Z,25.31
2022-08-20T15:25:19.847Z,25.55
2022-08-20T15:27:47.592Z,26.20
2022-08-20T15:30:21.021Z,25.67
2022-08-20T15:32:54.146Z,25.71
2022-08-20T15:35:28.346Z,26.17
2022-08-20T15:37:57.832Z,25.88
2022-08-20T15:40:28.750Z,25.62
2022-08-20T15:43:00.824Z,25.92
2022-08-20T15:45:28.743Z,26.59
2022-08-20T15:48:15.303Z,26.55
2022-08-20T15:50:48.082Z,26.88
2022-08-20T15:53:33.451Z,27.06
2022-08-20T15:56:36.776Z,26.70
2022-08-20T15:59:18.560Z,27.26
2022-08-20T16:01:52.947Z,27.66
2022-08-20T16:04:46.651Z,27.70
2022-08-20T16:07:21.081Z,27.61
2022-08-20T16:10:26.436Z,27.91
2022-08-20T16:12:57.835Z,28.34
2022-08-20T16:15:35.573Z,29.14
2022-08-20T16:18:08.337Z,29.29
2022-08-20T16:20:47.967Z,29.55
2022-08-20T16:23:17.118Z,29.69
2022-08-20T16:26:13.199Z,30.23
2022-08-20T16:28:46.169Z,30.72
2022-08-20T16:31:18.909Z,31.26
2022-08-20T16:34:05.833Z,31.09
2022-08-20T16:37:04.365Z,31.25
2022-08-20T16:39:48.494Z,31.55
2022-08-20T16:42:23.242Z,32.27
2022-08-20T16:44:54.210Z,31.97
2022-08-20T16:47:28.224Z,31.59
2022-08-20T16:50:02.435Z,32.01
2022-08-20T16:52:30.047Z,31.45
2022-08-20T16:54:57.341Z,31.35
2022-08-20T16:57:27.685Z,31.33
2022-08-20T17:00:18.864Z,31.55
2022-08-20T17:03:01.200Z,31.17
2022-08-20T17:05:50.060Z,30.70
2022-08-20T17:08:29.845Z,29.51
2022-08-20T17:11:17.196Z,29.58
2022-08-20T17:13:48.429Z,30.00
2022-08-20T17:16:15.435Z,29.78
2022-08-20T17:18:52.059Z,30.62
2022-08-20T17:21:38.086Z,30.83
2022-08-20T17:24:16.812Z,31.55
2022-08-20T17:26:50.744Z,29.30
2022-08-20T17:29:25.260Z,28.02
2022-08-20T17:31:57.849Z,26.68
2022-08-20T17:34:31.560Z,25.85
2022-08-20T17:37:05.123Z,25.27
2022-08-20T17:39:32.288Z,24.73
2022-08-20T17:42:09.826Z,24.70
2022-08-20T17:44:42.257Z,24.45
2022-08-20T17:47:13.823Z,24.25
2022-08-20T17:50:01.182Z,23.75
2022-08-20T17:52:46.671Z,24.09
2022-08-20T17:55:13.858Z,24.09
2022-08-20T17:57:44.742Z,23.81
2022-08-20T18:00:17.567Z,23.90
2022-08-20T18:02:44.749Z,23.59
2022-08-20T18:05:19.083Z,23.47
2022-08-20T18:08:10.119Z,23.29
2022-08-20T18:10:52.551Z,23.19
2022-08-20T18:13:27.087Z,23.19
2022-08-20T18:15:57.780Z,23.05
2022-08-20T18:18:56.508Z,22.94
2022-08-20T18:21:56.964Z,22.79
2022-08-20T18:24:39.483Z,22.83
2022-08-20T18:27:13.896Z,22.72
2022-08-20T18:29:44.894Z,22.52
2022-08-20T18:32:38.036Z,22.34
2022-08-20T18:35:17.474Z,22.31
2022-08-20T18:37:44.734Z,22.01
2022-08-20T18:40:38.742Z,22.14
2022-08-20T18:43:14.464Z,21.95
2022-08-20T18:45:42.007Z,21.94
2022-08-20T18:48:21.228Z,21.87
2022-08-20T18:50:54.954Z,21.75
2022-08-20T18:53:33.704Z,21.88
2022-08-20T18:56:05.846Z,21.80
2022-08-20T18:58:54.178Z,21.74
2022-08-20T19:01:21.429Z,21.61
2022-08-20T19:03:51.645Z,21.49
2022-08-20T19:07:07.534Z,20.86
2022-08-20T19:10:03.416Z,21.31
2022-08-20T19:13:03.894Z,21.15
2022-08-20T19:15:36.094Z,21.11
2022-08-20T19:18:09.557Z,20.99
2022-08-20T19:20:40.954Z,20.54
2022-08-20T19:23:20.280Z,20.84
2022-08-20T19:26:04.476Z,20.72
2022-08-20T19:28:42.636Z,20.81
2022-08-20T19:31:16.099Z,20.67
2022-08-20T19:33:47.338Z,20.64
2022-08-20T19:36:28.242Z,20.67
2022-08-20T19:39:01.690Z,20.64
2022-08-20T19:41:39.411Z,20.59
2022-08-20T19:44:07.026Z,20.49
2022-08-20T19:46:39.743Z,20.39
2022-08-20T19:49:12.669Z,20.36
2022-08-20T19:52:23.281Z,20.20
2022-08-20T19:54:53.847Z,20.12
2022-08-20T19:57:23.357Z,19.93
2022-08-20T20:00:05.317Z,19.94
2022-08-20T20:02:34.855Z,19.73
2022-08-20T20:05:10.254Z,19.67
2022-08-20T20:07:42.152Z,19.53
2022-08-20T20:10:32.758Z,19.59
2022-08-20T20:13:14.587Z,19.62
2022-08-20T20:15:42.674Z,19.35
2022-08-20T20:18:11.565Z,19.57
2022-08-20T20:20:57.722Z,19.56
2022-08-20T20:23:45.673Z,19.34
2022-08-20T20:26:17.486Z,19.19
2022-08-20T20:28:51.444Z,19.15
2022-08-20T20:31:30.146Z,19.03
2022-08-20T20:34:02.070Z,19.00
2022-08-20T20:36:38.579Z,18.96
2022-08-20T20:39:23.257Z,19.02
2022-08-20T20:41:52.889Z,19.00
2022-08-20T20:44:24.472Z,18.55
2022-08-20T20:46:57.365Z,18.64
2022-08-20T20:49:28.268Z,18.45
2022-08-20T20:52:15.176Z,18.52
2022-08-20T20:54:44.880Z,18.54
2022-08-20T20:57:17.932Z,18.52
2022-08-20T20:59:48.816Z,18.35
2022-08-20T21:02:16.873Z,18.48
2022-08-20T21:04:44.671Z,18.47
2022-08-20T21:07:15.083Z,18.41
2022-08-20T21:09:43.348Z,18.40
2022-08-20T21:12:12.164Z,18.28
2022-08-20T21:14:40.032Z,18.22
2022-08-20T21:17:09.891Z,18.16
2022-08-20T21:19:44.951Z,17.92
2022-08-20T21:22:12.486Z,17.99
2022-08-20T21:24:39.527Z,17.94
2022-08-20T21:27:08.086Z,18.08
2022-08-20T21:29:35.639Z,17.97
2022-08-20T21:32:03.176Z,17.79
2022-08-20T21:34:30.275Z,17.89
2022-08-20T21:36:57.487Z,17.73
2022-08-20T21:39:26.414Z,17.54
2022-08-20T21:41:56.080Z,17.68
2022-08-20T21:44:26.702Z,17.59
2022-08-20T21:46:57.295Z,17.59
2022-08-20T21:49:25.381Z,17.51
2022-08-20T21:51:52.858Z,17.15
2022-08-20T21:54:20.784Z,17.29
2022-08-20T21:56:51.736Z,17.36
2022-08-20T21:59:21.563Z,17.36
2022-08-20T22:01:48.874Z,16.99
2022-08-20T22:04:15.921Z,17.23
2022-08-20T22:06:43.597Z,17.19
2022-08-20T22:09:11.167Z,17.16
2022-08-20T22:11:38.492Z,16.96
2022-08-20T22:14:08.079Z,16.97
2022-08-20T22:16:35.547Z,16.83
2022-08-20T22:19:03.311Z,16.95
2022-08-20T22:21:33.152Z,16.84
2022-08-20T22:24:03.334Z,16.73
2022-08-20T22:26:34.752Z,16.64
2022-08-20T22:29:02.688Z,16.58
2022-08-20T22:31:33.093Z,16.76
2022-08-20T22:34:00.968Z,16.68
2022-08-20T22:36:28.987Z,16.41
2022-08-20T22:38:56.086Z,16.25
2022-08-20T22:41:23.861Z,16.57
2022-08-20T22:43:56.575Z,16.51
2022-08-20T22:46:32.032Z,16.48
2022-08-20T22:48:59.542Z,16.43
2022-08-20T22:51:34.746Z,16.45
2022-08-20T22:54:05.456Z,16.44
2022-08-20T22:56:32.727Z,16.45
2022-08-20T22:59:02.003Z,16.25
2022-08-20T23:01:29.452Z,16.20
2022-08-20T23:04:19.319Z,16.22
2022-08-20T23:06:46.367Z,16.16
2022-08-20T23:09:13.396Z,16.03
2022-08-20T23:11:41.359Z,15.76
2022-08-20T23:14:08.412Z,15.98
2022-08-20T23:16:38.380Z,15.86
2022-08-20T23:19:06.416Z,15.77
2022-08-20T23:21:33.690Z,15.92
2022-08-20T23:24:00.741Z,15.75
2022-08-20T23:26:27.840Z,15.65
2022-08-20T23:28:54.906Z,15.63
2022-08-20T23:31:22.362Z,15.64
2022-08-20T23:33:49.458Z,15.56
2022-08-20T23:36:19.963Z,15.52
2022-08-20T23:38:47.039Z,15.51
2022-08-20T23:41:14.136Z,15.41
2022-08-20T23:43:41.266Z,15.42
2022-08-20T23:46:08.867Z,15.52
2022-08-20T23:48:35.990Z,15.47
2022-08-20T23:51:03.080Z,15.36
2022-08-20T23:53:30.208Z,15.22
2022-08-20T23:55:57.259Z,15.39
2022-08-20T23:58:24.420Z,15.34
